createdAt,value
2019-04-03T00:01:37.488Z,7.75
2019-04-03T00:04:42.768Z,7.74
2019-04-03T00:07:48.044Z,7.61
2019-04-03T00:10:53.274Z,7.78
2019-04-03T00:13:58.574Z,7.83
2019-04-03T00:17:03.857Z,7.62
2019-04-03T00:20:09.195Z,7.71
2019-04-03T00:23:14.553Z,7.93
2019-04-03T00:26:21.813Z,7.99
2019-04-03T00:29:28.314Z,7.93
2019-04-03T00:32:33.674Z,7.98
2019-04-03T00:35:39.041Z,7.99
2019-04-03T00:38:44.433Z,7.78
2019-04-03T00:41:52.874Z,7.70
2019-04-03T00:44:56.802Z,7.58
2019-04-03T00:48:02.119Z,7.68
2019-04-03T00:51:07.387Z,7.79
2019-04-03T00:54:12.673Z,7.82
2019-04-03T00:57:17.924Z,8.05
2019-04-03T01:00:23.222Z,8.11
2019-04-03T01:03:28.740Z,8.07
2019-04-03T01:06:35.063Z,8.20
2019-04-03T01:09:40.377Z,8.00
2019-04-03T01:12:46.904Z,7.86
2019-04-03T01:15:52.498Z,7.88
2019-04-03T01:18:57.787Z,7.78
2019-04-03T01:22:03.124Z,7.97
2019-04-03T01:25:09.372Z,8.56
2019-04-03T01:28:15.039Z,8.39
2019-04-03T01:31:20.301Z,8.24
2019-04-03T01:34:25.607Z,8.15
2019-04-03T01:37:31.038Z,8.12
2019-04-03T01:40:36.416Z,7.98
2019-04-03T01:43:41.664Z,7.90
2019-04-03T01:46:46.989Z,7.89
2019-04-03T01:49:52.294Z,7.87
2019-04-03T01:52:57.816Z,8.06
2019-04-03T01:56:05.086Z,7.91
2019-04-03T01:59:10.075Z,7.99
2019-04-03T02:02:15.319Z,7.78
2019-04-03T02:05:20.742Z,7.90
2019-04-03T02:08:26.108Z,7.86
2019-04-03T02:11:31.528Z,8.00
2019-04-03T02:14:36.864Z,8.12
2019-04-03T02:17:42.301Z,8.06
2019-04-03T02:20:50.558Z,7.79
2019-04-03T02:23:56.102Z,7.87
2019-04-03T02:27:03.117Z,7.81
2019-04-03T02:30:12.346Z,7.70
2019-04-03T02:33:16.577Z,7.64
2019-04-03T02:36:22.013Z,7.41
2019-04-03T02:39:27.735Z,7.48
2019-04-03T02:42:33.885Z,7.37
2019-04-03T02:45:39.238Z,7.45
2019-04-03T02:48:44.534Z,7.44
2019-04-03T02:51:53.270Z,7.37
2019-04-03T02:54:57.221Z,7.24
2019-04-03T02:58:02.721Z,7.10
2019-04-03T03:01:08.748Z,7.13
2019-04-03T03:04:14.142Z,7.26
2019-04-03T03:07:19.964Z,7.45
2019-04-03T03:10:25.884Z,7.29
2019-04-03T03:13:34.471Z,7.12
2019-04-03T03:16:39.334Z,7.18
2019-04-03T03:19:44.787Z,7.40
2019-04-03T03:22:51.154Z,7.49
2019-04-03T03:25:58.238Z,7.53
2019-04-03T03:29:16.563Z,7.48
2019-04-03T03:32:18.849Z,7.40
2019-04-03T03:35:27.903Z,7.52
2019-04-03T03:38:28.138Z,7.50
2019-04-03T03:41:33.766Z,7.68
2019-04-03T03:44:43.219Z,7.85
2019-04-03T03:47:46.696Z,7.98
2019-04-03T03:50:55.507Z,7.94
2019-04-03T03:53:59.822Z,8.03
2019-04-03T03:57:07.271Z,8.05
2019-04-03T04:00:12.555Z,8.16
2019-04-03T04:03:18.083Z,8.12
2019-04-03T04:06:27.926Z,8.18
2019-04-03T04:09:31.050Z,8.17
2019-04-03T04:12:39.822Z,8.16
2019-04-03T04:15:44.963Z,8.27
2019-04-03T04:18:50.997Z,8.24
2019-04-03T04:21:56.758Z,8.28
2019-04-03T04:25:05.349Z,8.32
2019-04-03T04:28:10.715Z,8.46
2019-04-03T04:31:17.978Z,8.46
2019-04-03T04:34:22.956Z,8.45
2019-04-03T04:37:30.048Z,8.47
2019-04-03T04:40:35.573Z,8.49
2019-04-03T04:43:41.111Z,8.50
2019-04-03T04:46:46.327Z,8.51
2019-04-03T04:49:51.757Z,8.52
2019-04-03T04:52:59.399Z,8.37
2019-04-03T04:56:06.581Z,8.15
2019-04-03T04:59:13.986Z,8.05
2019-04-03T05:02:20.224Z,7.98
2019-04-03T05:05:27.201Z,8.03
2019-04-03T05:08:33.587Z,8.16
2019-04-03T05:11:40.242Z,8.31
2019-04-03T05:14:46.860Z,8.46
2019-04-03T05:17:52.625Z,8.55
2019-04-03T05:20:57.956Z,8.63
2019-04-03T05:24:11.487Z,8.72
2019-04-03T05:27:10.456Z,8.79
2019-04-03T05:30:29.224Z,8.78
2019-04-03T05:33:35.497Z,8.81
2019-04-03T05:36:40.806Z,8.86
2019-04-03T05:39:46.033Z,8.87
2019-04-03T05:42:51.410Z,8.86
2019-04-03T05:45:56.652Z,8.83
2019-04-03T05:49:01.923Z,8.87
2019-04-03T05:52:08.125Z,8.86
2019-04-03T05:55:13.518Z,8.91
2019-04-03T05:58:19.001Z,8.94
2019-04-03T06:01:24.492Z,9.04
2019-04-03T06:04:29.921Z,9.10
2019-04-03T06:07:35.353Z,9.22
2019-04-03T06:10:40.720Z,9.34
2019-04-03T06:13:48.051Z,9.31
2019-04-03T06:16:55.521Z,9.35
2019-04-03T06:20:00.137Z,9.50
2019-04-03T06:23:05.482Z,9.65
2019-04-03T06:26:11.097Z,9.71
2019-04-03T06:29:18.441Z,9.77
2019-04-03T06:32:24.834Z,9.92
2019-04-03T06:35:30.420Z,9.89
2019-04-03T06:38:35.772Z,9.93
2019-04-03T06:41:42.080Z,9.97
2019-04-03T06:44:48.086Z,10.29
2019-04-03T06:47:53.376Z,10.53
2019-04-03T06:50:58.701Z,10.64
2019-04-03T06:54:06.941Z,10.65
2019-04-03T06:57:13.332Z,10.80
2019-04-03T07:00:18.015Z,10.79
2019-04-03T07:03:23.237Z,10.95
2019-04-03T07:06:28.877Z,10.67
2019-04-03T07:09:36.706Z,10.82
2019-04-03T07:12:41.255Z,11.14
2019-04-03T07:15:46.771Z,10.97
2019-04-03T07:19:00.272Z,11.18
2019-04-03T07:22:05.648Z,11.26
2019-04-03T07:25:13.582Z,11.17
2019-04-03T07:28:22.066Z,11.10
2019-04-03T07:31:27.487Z,10.88
2019-04-03T07:34:34.266Z,10.89
2019-04-03T07:37:39.969Z,11.10
2019-04-03T07:40:45.427Z,11.16
2019-04-03T07:43:50.704Z,11.44
2019-04-03T07:46:55.973Z,11.61
2019-04-03T07:50:01.262Z,11.53
2019-04-03T07:53:07.815Z,11.43
2019-04-03T07:56:13.352Z,11.62
2019-04-03T07:59:18.822Z,11.82
2019-04-03T08:02:26.901Z,11.84
2019-04-03T08:05:31.692Z,12.28
2019-04-03T08:08:39.584Z,12.05
2019-04-03T08:11:44.986Z,12.05
2019-04-03T08:14:51.255Z,12.05
2019-04-03T08:17:57.815Z,12.04
2019-04-03T08:21:03.307Z,12.01
2019-04-03T08:24:08.689Z,12.23
2019-04-03T08:27:14.178Z,12.02
2019-04-03T08:30:20.056Z,12.05
2019-04-03T08:33:27.471Z,11.85
2019-04-03T08:36:32.949Z,12.01
2019-04-03T08:39:38.304Z,12.34
2019-04-03T08:42:43.714Z,12.38
2019-04-03T08:45:50.679Z,12.38
2019-04-03T08:48:59.519Z,12.78
2019-04-03T08:52:05.657Z,12.91
2019-04-03T08:55:14.154Z,12.79
2019-04-03T08:58:20.974Z,12.52
2019-04-03T09:01:25.556Z,12.55
2019-04-03T09:04:30.846Z,12.38
2019-04-03T09:07:36.095Z,12.77
2019-04-03T09:10:41.370Z,13.31
2019-04-03T09:13:46.614Z,13.19
2019-04-03T09:16:52.007Z,13.37
2019-04-03T09:19:57.453Z,13.37
2019-04-03T09:23:02.757Z,13.31
2019-04-03T09:26:08.044Z,13.26
2019-04-03T09:29:15.458Z,13.70
2019-04-03T09:32:20.903Z,13.65
2019-04-03T09:35:27.654Z,14.03
2019-04-03T09:38:35.315Z,13.91
2019-04-03T09:41:40.105Z,14.22
2019-04-03T09:44:46.461Z,13.62
2019-04-03T09:47:51.857Z,13.27
2019-04-03T09:50:57.139Z,13.56
2019-04-03T09:54:02.491Z,14.23
2019-04-03T09:57:07.742Z,14.56
2019-04-03T10:00:14.820Z,14.39
2019-04-03T10:03:20.856Z,14.40
2019-04-03T10:06:30.389Z,14.79
2019-04-03T10:09:34.218Z,14.81
2019-04-03T10:12:39.499Z,14.35
2019-04-03T10:15:44.799Z,14.38
2019-04-03T10:18:50.272Z,14.41
2019-04-03T10:21:55.630Z,14.14
2019-04-03T10:25:04.851Z,14.00
2019-04-03T10:28:08.000Z,13.79
2019-04-03T10:31:13.265Z,13.19
2019-04-03T10:34:18.526Z,12.76
2019-04-03T10:37:23.751Z,12.74
2019-04-03T10:40:29.115Z,12.67
2019-04-03T10:43:36.651Z,12.36
2019-04-03T10:46:41.466Z,12.51
2019-04-03T10:49:47.082Z,12.67
2019-04-03T10:52:52.530Z,12.87
2019-04-03T10:55:59.685Z,12.77
2019-04-03T10:59:11.519Z,12.91
2019-04-03T11:02:13.640Z,12.96
2019-04-03T11:05:19.368Z,13.15
2019-04-03T11:08:24.776Z,13.07
2019-04-03T11:11:30.246Z,12.99
2019-04-03T11:14:38.513Z,13.06
2019-04-03T11:17:42.943Z,13.17
2019-04-03T11:20:48.265Z,13.19
2019-04-03T11:23:53.694Z,13.33
2019-04-03T11:26:59.217Z,13.38
2019-04-03T11:30:10.991Z,13.49
2019-04-03T11:33:17.515Z,13.32
2019-04-03T11:36:29.551Z,13.17
2019-04-03T11:39:32.534Z,12.97
2019-04-03T11:42:37.912Z,12.81
2019-04-03T11:45:43.342Z,12.77
2019-04-03T11:48:49.183Z,12.66
2019-04-03T11:51:54.693Z,12.36
2019-04-03T11:55:00.269Z,12.56
2019-04-03T11:58:06.072Z,12.73
2019-04-03T12:01:11.933Z,12.57
2019-04-03T12:04:17.635Z,12.05
2019-04-03T12:07:24.744Z,12.16
2019-04-03T12:10:32.821Z,12.30
2019-04-03T12:13:39.213Z,11.99
2019-04-03T12:16:44.873Z,11.63
2019-04-03T12:19:50.219Z,11.54
2019-04-03T12:22:56.963Z,11.22
2019-04-03T12:26:02.486Z,10.89
2019-04-03T12:29:08.388Z,9.95
2019-04-03T12:32:13.945Z,9.26
2019-04-03T12:35:19.623Z,8.79
2019-04-03T12:38:25.036Z,8.68
2019-04-03T12:41:31.957Z,8.61
2019-04-03T12:44:37.398Z,8.77
2019-04-03T12:47:47.704Z,8.56
2019-04-03T12:50:53.322Z,8.77
2019-04-03T12:53:59.966Z,9.01
2019-04-03T12:57:05.577Z,9.19
2019-04-03T13:00:13.482Z,9.47
2019-04-03T13:03:19.445Z,9.91
2019-04-03T13:06:25.031Z,10.34
2019-04-03T13:09:30.666Z,10.67
2019-04-03T13:12:36.113Z,10.59
2019-04-03T13:15:41.468Z,10.56
2019-04-03T13:18:50.582Z,10.15
2019-04-03T13:21:57.013Z,9.82
2019-04-03T13:25:05.388Z,9.50
2019-04-03T13:28:10.683Z,9.05
2019-04-03T13:31:16.349Z,9.00
2019-04-03T13:34:21.945Z,8.72
2019-04-03T13:37:27.736Z,8.46
2019-04-03T13:40:36.425Z,8.37
2019-04-03T13:43:40.756Z,8.64
2019-04-03T13:46:46.292Z,8.48
2019-04-03T13:49:52.059Z,8.86
2019-04-03T13:52:57.457Z,8.70
2019-04-03T13:56:05.338Z,8.48
2019-04-03T13:59:10.795Z,8.58
2019-04-03T14:02:16.224Z,8.36
2019-04-03T14:05:21.965Z,8.42
2019-04-03T14:08:28.853Z,8.59
2019-04-03T14:11:34.313Z,8.50
2019-04-03T14:14:39.923Z,8.44
2019-04-03T14:17:55.156Z,8.50
2019-04-03T14:20:55.298Z,8.59
2019-04-03T14:23:59.389Z,8.75
2019-04-03T14:27:17.158Z,8.71
2019-04-03T14:30:14.419Z,8.85
2019-04-03T14:33:21.280Z,8.92
2019-04-03T14:36:27.456Z,8.88
2019-04-03T14:39:33.209Z,8.67
2019-04-03T14:42:38.673Z,8.75
2019-04-03T14:45:45.191Z,8.70
2019-04-03T14:48:53.253Z,8.65
2019-04-03T14:51:58.787Z,8.82
2019-04-03T14:55:16.587Z,8.92
2019-04-03T14:58:12.049Z,9.26
2019-04-03T15:01:19.868Z,9.61
2019-04-03T15:04:27.469Z,9.71
2019-04-03T15:07:33.042Z,9.48
2019-04-03T15:10:38.538Z,9.45
2019-04-03T15:13:44.256Z,9.41
2019-04-03T15:16:50.005Z,9.32
2019-04-03T15:19:57.069Z,9.37
2019-04-03T15:23:04.804Z,9.23
2019-04-03T15:26:09.278Z,9.31
2019-04-03T15:29:14.697Z,9.33
2019-04-03T15:32:20.478Z,9.51
2019-04-03T15:35:25.885Z,9.68
2019-04-03T15:38:31.196Z,9.35
2019-04-03T15:41:36.999Z,9.33
2019-04-03T15:44:42.507Z,9.57
2019-04-03T15:47:49.687Z,9.75
2019-04-03T15:50:55.495Z,9.52
2019-04-03T15:54:03.818Z,9.62
2019-04-03T15:57:09.129Z,9.60
2019-04-03T16:00:15.702Z,9.38
2019-04-03T16:03:21.255Z,9.37
2019-04-03T16:06:26.622Z,9.41
2019-04-03T16:09:32.328Z,9.34
2019-04-03T16:12:41.502Z,9.33
2019-04-03T16:15:44.742Z,9.30
2019-04-03T16:18:50.571Z,9.41
2019-04-03T16:21:57.659Z,9.39
2019-04-03T16:25:03.699Z,9.33
2019-04-03T16:28:12.936Z,9.11
2019-04-03T16:31:17.980Z,9.04
2019-04-03T16:34:24.367Z,8.98
2019-04-03T16:37:29.986Z,9.04
2019-04-03T16:40:37.783Z,9.05
2019-04-03T16:43:42.674Z,8.90
2019-04-03T16:46:48.077Z,8.91
2019-04-03T16:49:54.843Z,8.78
2019-04-03T16:53:00.691Z,8.65
2019-04-03T16:56:07.061Z,8.73
2019-04-03T16:59:12.812Z,8.55
2019-04-03T17:02:23.897Z,8.50
2019-04-03T17:05:28.901Z,8.55
2019-04-03T17:08:35.137Z,8.49
2019-04-03T17:11:43.501Z,8.55
2019-04-03T17:14:47.537Z,8.52
2019-04-03T17:17:52.829Z,8.50
2019-04-03T17:20:58.439Z,8.41
2019-04-03T17:24:04.993Z,8.42
2019-04-03T17:27:10.560Z,8.39
2019-04-03T17:30:18.346Z,8.43
2019-04-03T17:33:23.503Z,8.42
2019-04-03T17:36:30.466Z,8.35
2019-04-03T17:39:36.265Z,8.26
2019-04-03T17:42:42.151Z,8.20
2019-04-03T17:45:47.654Z,8.20
2019-04-03T17:48:53.712Z,8.23
2019-04-03T17:52:00.138Z,8.29
2019-04-03T17:55:07.873Z,8.28
2019-04-03T17:58:16.449Z,8.27
2019-04-03T18:01:22.200Z,8.20
2019-04-03T18:04:29.078Z,8.12
2019-04-03T18:07:37.032Z,8.09
2019-04-03T18:10:42.575Z,8.06
2019-04-03T18:13:49.560Z,8.07
2019-04-03T18:16:54.834Z,8.12
2019-04-03T18:20:00.170Z,8.02
2019-04-03T18:23:05.566Z,7.93
2019-04-03T18:26:11.022Z,7.88
2019-04-03T18:29:16.368Z,7.92
2019-04-03T18:32:21.791Z,7.86
2019-04-03T18:35:27.221Z,7.90
2019-04-03T18:38:32.682Z,7.93
2019-04-03T18:41:38.073Z,7.89
2019-04-03T18:44:43.507Z,7.86
2019-04-03T18:47:51.032Z,7.85
2019-04-03T18:50:58.105Z,7.86
2019-04-03T18:54:03.816Z,7.84
2019-04-03T18:57:09.338Z,7.81
2019-04-03T19:00:15.131Z,7.85
2019-04-03T19:03:20.616Z,7.78
2019-04-03T19:06:25.947Z,7.74
2019-04-03T19:09:31.453Z,7.78
2019-04-03T19:12:36.905Z,7.78
2019-04-03T19:15:43.486Z,7.79
2019-04-03T19:18:49.234Z,7.78
2019-04-03T19:21:56.666Z,7.76
2019-04-03T19:25:02.127Z,7.73
2019-04-03T19:28:07.502Z,7.73
2019-04-03T19:31:12.809Z,7.73
2019-04-03T19:34:20.258Z,7.74
2019-04-03T19:37:25.137Z,7.76
2019-04-03T19:40:30.573Z,7.75
2019-04-03T19:43:35.896Z,7.85
2019-04-03T19:46:41.204Z,7.81
2019-04-03T19:49:48.027Z,7.72
2019-04-03T19:52:53.586Z,7.68
2019-04-03T19:55:58.882Z,7.59
2019-04-03T19:59:04.954Z,7.67
2019-04-03T20:02:10.427Z,7.62
2019-04-03T20:05:18.655Z,7.54
2019-04-03T20:08:22.990Z,7.50
2019-04-03T20:11:28.479Z,7.53
2019-04-03T20:14:33.813Z,7.60
2019-04-03T20:17:39.142Z,7.62
2019-04-03T20:20:45.527Z,7.37
2019-04-03T20:23:50.859Z,7.11
2019-04-03T20:26:56.256Z,7.04
2019-04-03T20:30:03.151Z,6.95
2019-04-03T20:33:11.421Z,6.83
2019-04-03T20:36:16.790Z,6.90
2019-04-03T20:39:24.402Z,6.88
2019-04-03T20:42:29.696Z,6.75
2019-04-03T20:45:34.995Z,6.78
2019-04-03T20:48:40.307Z,6.74
2019-04-03T20:51:48.447Z,6.69
2019-04-03T20:54:53.175Z,6.65
2019-04-03T20:57:59.151Z,6.65
2019-04-03T21:01:07.313Z,6.61
2019-04-03T21:04:15.456Z,6.57
2019-04-03T21:07:23.746Z,6.54
2019-04-03T21:10:27.825Z,6.52
2019-04-03T21:13:33.138Z,6.52
2019-04-03T21:16:38.444Z,6.60
2019-04-03T21:19:43.765Z,6.61
2019-04-03T21:22:50.082Z,6.60
2019-04-03T21:25:55.396Z,6.63
2019-04-03T21:29:00.694Z,6.70
2019-04-03T21:32:06.231Z,6.71
2019-04-03T21:35:13.263Z,6.76
2019-04-03T21:38:22.578Z,6.73
2019-04-03T21:41:27.845Z,6.67
2019-04-03T21:44:33.131Z,6.61
2019-04-03T21:47:38.525Z,6.55
2019-04-03T21:50:43.737Z,6.46
2019-04-03T21:53:49.033Z,6.43
2019-04-03T21:56:54.336Z,6.50
2019-04-03T21:59:59.560Z,6.45
2019-04-03T22:03:06.817Z,6.41
2019-04-03T22:06:11.921Z,6.37
2019-04-03T22:09:17.252Z,6.30
2019-04-03T22:12:22.730Z,6.31
2019-04-03T22:15:28.036Z,6.37
2019-04-03T22:18:34.655Z,6.37
2019-04-03T22:21:39.967Z,6.33
2019-04-03T22:24:45.273Z,6.29
2019-04-03T22:27:50.511Z,6.30
2019-04-03T22:30:57.209Z,6.31
2019-04-03T22:34:02.491Z,6.35
2019-04-03T22:37:07.862Z,6.43
2019-04-03T22:40:13.430Z,6.44
2019-04-03T22:43:18.701Z,6.40
2019-04-03T22:46:24.092Z,6.39
2019-04-03T22:49:33.584Z,6.35
2019-04-03T22:52:38.057Z,6.37
2019-04-03T22:55:46.401Z,6.41
2019-04-03T22:58:52.865Z,6.40
2019-04-03T23:02:00.685Z,6.44
2019-04-03T23:05:05.980Z,6.45
2019-04-03T23:08:12.196Z,6.41
2019-04-03T23:11:17.526Z,6.31
2019-04-03T23:14:22.825Z,6.33
2019-04-03T23:17:28.246Z,6.35
2019-04-03T23:20:33.585Z,6.37
2019-04-03T23:23:38.951Z,6.35
2019-04-03T23:26:44.192Z,6.21
2019-04-03T23:29:49.416Z,6.24
2019-04-03T23:32:54.730Z,6.26
2019-04-03T23:36:00.070Z,6.24
2019-04-03T23:39:08.000Z,6.23
2019-04-03T23:42:13.273Z,6.13
2019-04-03T23:45:19.435Z,6.14
2019-04-03T23:48:24.732Z,6.17
2019-04-03T23:51:30.212Z,6.19
2019-04-03T23:54:35.721Z,6.11
2019-04-03T23:57:41.111Z,6.12
